LNK672 FAPE-FACT
Flight info
| Callsign | LNK672 |
|---|---|
| Flight time | N/A |
| Altitude | 38000 |
| Route | OKRAV UQ49 ESRUK UQ51 GETEN GETEN1A |
| Aircraft | E190/M-SDE3GILORVW/S |
Departure
| Time | 2026-04-18 08:41 |
|---|---|
| Airport | Chief Dawid Stuurman International Airport (FAPE) |
Arrival
| Time | N/A |
|---|---|
| Airport | Cape Town International Airport (FACT) |
| Time | Latitude | Longitude | Altitude | Speed | Heading |
|---|---|---|---|---|---|
| 2026-04-18 07:48 | -33.98452 | 25.61219 | 213 ft | 0 kts | 327° |
| 2026-04-18 08:19 | -33.98453 | 25.61220 | 204 ft | 3 kts | 327° |
| 2026-04-18 08:19 | -33.98469 | 25.61232 | 215 ft | 3 kts | 327° |
| 2026-04-18 08:19 | -33.98486 | 25.61241 | 208 ft | 3 kts | 22° |
| 2026-04-18 08:19 | -33.98495 | 25.61235 | 213 ft | 0 kts | 52° |
| 2026-04-18 08:24 | -33.98487 | 25.61247 | 208 ft | 3 kts | 53° |
| 2026-04-18 08:24 | -33.98475 | 25.61276 | 208 ft | 5 kts | 60° |
| 2026-04-18 08:24 | -33.98456 | 25.61316 | 209 ft | 3 kts | 60° |
| 2026-04-18 08:25 | -33.98439 | 25.61349 | 212 ft | 6 kts | 58° |
| 2026-04-18 08:25 | -33.98418 | 25.61394 | 208 ft | 6 kts | 73° |
| 2026-04-18 08:25 | -33.98408 | 25.61453 | 205 ft | 8 kts | 72° |
| 2026-04-18 08:25 | -33.98380 | 25.61522 | 205 ft | 10 kts | 63° |
| 2026-04-18 08:26 | -33.98340 | 25.61604 | 206 ft | 12 kts | 59° |
| 2026-04-18 08:26 | -33.98292 | 25.61694 | 207 ft | 13 kts | 56° |
| 2026-04-18 08:26 | -33.98249 | 25.61782 | 211 ft | 11 kts | 61° |
| 2026-04-18 08:26 | -33.98227 | 25.61863 | 205 ft | 9 kts | 98° |
| 2026-04-18 08:27 | -33.98269 | 25.61913 | 207 ft | 5 kts | 151° |
| 2026-04-18 08:27 | -33.98273 | 25.61916 | 207 ft | 1 kts | 150° |
| 2026-04-18 08:27 | -33.98280 | 25.61920 | 210 ft | 2 kts | 150° |
| 2026-04-18 08:27 | -33.98292 | 25.61929 | 213 ft | 3 kts | 150° |
| 2026-04-18 08:28 | -33.98310 | 25.61941 | 208 ft | 3 kts | 150° |
| 2026-04-18 08:28 | -33.98334 | 25.61957 | 214 ft | 4 kts | 150° |
| 2026-04-18 08:28 | -33.98358 | 25.61958 | 211 ft | 3 kts | 199° |
| 2026-04-18 08:28 | -33.98379 | 25.61929 | 205 ft | 7 kts | 239° |
| 2026-04-18 08:29 | -33.98495 | 25.61707 | 212 ft | 60 kts | 237° |
| 2026-04-18 08:29 | -33.98803 | 25.61098 | 210 ft | 108 kts | 237° |
| 2026-04-18 08:29 | -33.98994 | 25.60289 | 201 ft | 75 kts | 289° |
| 2026-04-18 08:29 | -33.98886 | 25.60089 | 206 ft | 0 kts | 317° |
| 2026-04-18 08:30 | -33.98452 | 25.61219 | 211 ft | 0 kts | 327° |
| 2026-04-18 08:34 | -33.98452 | 25.61218 | 211 ft | 0 kts | 327° |
| 2026-04-18 08:34 | -33.98443 | 25.61212 | 210 ft | 2 kts | 327° |
| 2026-04-18 08:34 | -33.98424 | 25.61197 | 206 ft | 0 kts | 335° |
| 2026-04-18 08:36 | -33.98433 | 25.61203 | 211 ft | 2 kts | 335° |
| 2026-04-18 08:37 | -33.98448 | 25.61211 | 212 ft | 2 kts | 335° |
| 2026-04-18 08:37 | -33.98463 | 25.61219 | 210 ft | 2 kts | 335° |
| 2026-04-18 08:37 | -33.98478 | 25.61228 | 210 ft | 2 kts | 335° |
| 2026-04-18 08:37 | -33.98493 | 25.61236 | 201 ft | 2 kts | 335° |
| 2026-04-18 08:38 | -33.98508 | 25.61244 | 209 ft | 2 kts | 335° |
| 2026-04-18 08:38 | -33.98516 | 25.61249 | 205 ft | 0 kts | 335° |
| 2026-04-18 08:39 | -33.98512 | 25.61246 | 207 ft | 4 kts | 336° |
| 2026-04-18 08:39 | -33.98489 | 25.61267 | 206 ft | 7 kts | 51° |
| 2026-04-18 08:39 | -33.98454 | 25.61350 | 207 ft | 15 kts | 66° |
| 2026-04-18 08:39 | -33.98395 | 25.61492 | 206 ft | 21 kts | 60° |
| 2026-04-18 08:40 | -33.98400 | 25.61647 | 202 ft | 21 kts | 144° |
| 2026-04-18 08:40 | -33.98488 | 25.61708 | 204 ft | 7 kts | 206° |
| 2026-04-18 08:40 | -33.98585 | 25.61532 | 204 ft | 73 kts | 238° |
| 2026-04-18 08:40 | -33.99000 | 25.60733 | 477 ft | 123 kts | 240° |
| 2026-04-18 08:41 | -33.99483 | 25.59810 | 1153 ft | 139 kts | 244° |
| 2026-04-18 08:41 | -34.00086 | 25.58729 | 1541 ft | 173 kts | 240° |
| 2026-04-18 08:41 | -34.00779 | 25.57429 | 2172 ft | 192 kts | 249° |
| 2026-04-18 08:41 | -34.00400 | 25.55919 | 432 ft | 58 kts | 275° |